sensor_id;sensor_type;location;lat;lon;timestamp;P1;durP1;ratioP1;P2;durP2;ratioP2
2896;SDS011;1458;49.728;9.228;2022-09-24T00:01:21;0.20;;;0.20;;
2896;SDS011;1458;49.728;9.228;2022-09-24T00:03:50;0.20;;;0.20;;
2896;SDS011;1458;49.728;9.228;2022-09-24T00:06:20;0.20;;;0.20;;
2896;SDS011;1458;49.728;9.228;2022-09-24T00:08:50;0.20;;;0.20;;
2896;SDS011;1458;49.728;9.228;2022-09-24T00:11:21;0.20;;;0.20;;
2896;SDS011;1458;49.728;9.228;2022-09-24T00:13:50;0.20;;;0.20;;
2896;SDS011;1458;49.728;9.228;2022-09-24T00:16:19;0.20;;;0.20;;
2896;SDS011;1458;49.728;9.228;2022-09-24T00:18:49;0.20;;;0.20;;
2896;SDS011;1458;49.728;9.228;2022-09-24T00:21:18;0.20;;;0.20;;
2896;SDS011;1458;49.728;9.228;2022-09-24T00:23:49;0.20;;;0.20;;
2896;SDS011;1458;49.728;9.228;2022-09-24T00:26:20;0.20;;;0.20;;
2896;SDS011;1458;49.728;9.228;2022-09-24T00:29:06;0.20;;;0.20;;
2896;SDS011;1458;49.728;9.228;2022-09-24T00:31:35;0.20;;;0.20;;
2896;SDS011;1458;49.728;9.228;2022-09-24T00:34:02;0.20;;;0.20;;
2896;SDS011;1458;49.728;9.228;2022-09-24T00:36:30;0.20;;;0.20;;
2896;SDS011;1458;49.728;9.228;2022-09-24T00:38:58;0.30;;;0.30;;
2896;SDS011;1458;49.728;9.228;2022-09-24T00:41:28;0.20;;;0.20;;
2896;SDS011;1458;49.728;9.228;2022-09-24T00:43:58;0.20;;;0.20;;
2896;SDS011;1458;49.728;9.228;2022-09-24T00:46:27;0.30;;;0.30;;
2896;SDS011;1458;49.728;9.228;2022-09-24T00:48:59;0.20;;;0.20;;
2896;SDS011;1458;49.728;9.228;2022-09-24T00:51:32;0.20;;;0.20;;
2896;SDS011;1458;49.728;9.228;2022-09-24T00:54:02;0.20;;;0.20;;
2896;SDS011;1458;49.728;9.228;2022-09-24T00:56:35;0.20;;;0.20;;
2896;SDS011;1458;49.728;9.228;2022-09-24T00:59:05;0.20;;;0.20;;
2896;SDS011;1458;49.728;9.228;2022-09-24T01:01:36;0.20;;;0.20;;
2896;SDS011;1458;49.728;9.228;2022-09-24T01:04:04;0.20;;;0.20;;
2896;SDS011;1458;49.728;9.228;2022-09-24T01:06:33;0.20;;;0.20;;
2896;SDS011;1458;49.728;9.228;2022-09-24T01:09:00;0.20;;;0.20;;
2896;SDS011;1458;49.728;9.228;2022-09-24T01:11:31;0.20;;;0.20;;
2896;SDS011;1458;49.728;9.228;2022-09-24T01:17:13;0.20;;;0.20;;
2896;SDS011;1458;49.728;9.228;2022-09-24T01:19:58;0.30;;;0.30;;
2896;SDS011;1458;49.728;9.228;2022-09-24T01:23:04;0.30;;;0.30;;
2896;SDS011;1458;49.728;9.228;2022-09-24T01:26:06;0.20;;;0.20;;
2896;SDS011;1458;49.728;9.228;2022-09-24T01:28:53;0.20;;;0.20;;
2896;SDS011;1458;49.728;9.228;2022-09-24T01:31:32;0.30;;;0.30;;
2896;SDS011;1458;49.728;9.228;2022-09-24T01:34:05;0.20;;;0.20;;
2896;SDS011;1458;49.728;9.228;2022-09-24T01:36:35;0.30;;;0.30;;
2896;SDS011;1458;49.728;9.228;2022-09-24T01:39:05;0.20;;;0.20;;
2896;SDS011;1458;49.728;9.228;2022-09-24T01:41:34;0.20;;;0.20;;
2896;SDS011;1458;49.728;9.228;2022-09-24T01:44:04;0.30;;;0.30;;
2896;SDS011;1458;49.728;9.228;2022-09-24T01:46:33;0.20;;;0.20;;
2896;SDS011;1458;49.728;9.228;2022-09-24T01:49:04;0.20;;;0.20;;
2896;SDS011;1458;49.728;9.228;2022-09-24T01:51:33;0.20;;;0.20;;
2896;SDS011;1458;49.728;9.228;2022-09-24T01:54:09;0.30;;;0.30;;
2896;SDS011;1458;49.728;9.228;2022-09-24T01:56:45;0.30;;;0.30;;
2896;SDS011;1458;49.728;9.228;2022-09-24T01:59:18;0.20;;;0.20;;
2896;SDS011;1458;49.728;9.228;2022-09-24T02:01:57;0.20;;;0.20;;
2896;SDS011;1458;49.728;9.228;2022-09-24T02:04:32;0.20;;;0.20;;
2896;SDS011;1458;49.728;9.228;2022-09-24T02:07:05;0.20;;;0.20;;
2896;SDS011;1458;49.728;9.228;2022-09-24T02:09:38;0.20;;;0.20;;
2896;SDS011;1458;49.728;9.228;2022-09-24T02:12:08;0.30;;;0.30;;
2896;SDS011;1458;49.728;9.228;2022-09-24T02:14:38;0.30;;;0.30;;
2896;SDS011;1458;49.728;9.228;2022-09-24T02:17:12;0.20;;;0.20;;
2896;SDS011;1458;49.728;9.228;2022-09-24T02:19:41;0.23;;;0.23;;
2896;SDS011;1458;49.728;9.228;2022-09-24T02:22:10;0.20;;;0.20;;
2896;SDS011;1458;49.728;9.228;2022-09-24T02:24:42;0.30;;;0.30;;
2896;SDS011;1458;49.728;9.228;2022-09-24T02:27:13;0.30;;;0.30;;
2896;SDS011;1458;49.728;9.228;2022-09-24T02:29:42;0.23;;;0.23;;
2896;SDS011;1458;49.728;9.228;2022-09-24T02:32:12;0.23;;;0.23;;
2896;SDS011;1458;49.728;9.228;2022-09-24T02:34:44;0.23;;;0.23;;
2896;SDS011;1458;49.728;9.228;2022-09-24T02:37:16;0.20;;;0.20;;
2896;SDS011;1458;49.728;9.228;2022-09-24T02:39:44;0.20;;;0.20;;
2896;SDS011;1458;49.728;9.228;2022-09-24T02:42:12;0.20;;;0.20;;
2896;SDS011;1458;49.728;9.228;2022-09-24T02:44:41;0.20;;;0.20;;
2896;SDS011;1458;49.728;9.228;2022-09-24T02:47:08;0.20;;;0.20;;
2896;SDS011;1458;49.728;9.228;2022-09-24T02:49:37;0.30;;;0.30;;
2896;SDS011;1458;49.728;9.228;2022-09-24T02:52:05;0.30;;;0.30;;
2896;SDS011;1458;49.728;9.228;2022-09-24T02:54:33;0.30;;;0.30;;
2896;SDS011;1458;49.728;9.228;2022-09-24T02:57:00;0.20;;;0.20;;
2896;SDS011;1458;49.728;9.228;2022-09-24T02:59:27;0.20;;;0.20;;
2896;SDS011;1458;49.728;9.228;2022-09-24T03:01:55;0.30;;;0.30;;
2896;SDS011;1458;49.728;9.228;2022-09-24T03:04:22;0.20;;;0.20;;
2896;SDS011;1458;49.728;9.228;2022-09-24T03:06:51;0.30;;;0.30;;
2896;SDS011;1458;49.728;9.228;2022-09-24T03:09:19;0.20;;;0.20;;
2896;SDS011;1458;49.728;9.228;2022-09-24T03:11:46;0.20;;;0.20;;
2896;SDS011;1458;49.728;9.228;2022-09-24T03:14:14;0.30;;;0.30;;
2896;SDS011;1458;49.728;9.228;2022-09-24T03:16:41;0.30;;;0.30;;
2896;SDS011;1458;49.728;9.228;2022-09-24T03:19:09;0.30;;;0.30;;
2896;SDS011;1458;49.728;9.228;2022-09-24T03:21:36;0.30;;;0.30;;
2896;SDS011;1458;49.728;9.228;2022-09-24T03:24:05;0.20;;;0.20;;
2896;SDS011;1458;49.728;9.228;2022-09-24T03:26:32;0.20;;;0.20;;
2896;SDS011;1458;49.728;9.228;2022-09-24T03:29:00;0.20;;;0.20;;
2896;SDS011;1458;49.728;9.228;2022-09-24T03:31:27;0.20;;;0.20;;
2896;SDS011;1458;49.728;9.228;2022-09-24T03:33:54;0.27;;;0.27;;
2896;SDS011;1458;49.728;9.228;2022-09-24T03:36:22;0.23;;;0.23;;
2896;SDS011;1458;49.728;9.228;2022-09-24T03:38:52;0.40;;;0.40;;
2896;SDS011;1458;49.728;9.228;2022-09-24T03:41:22;0.23;;;0.23;;
2896;SDS011;1458;49.728;9.228;2022-09-24T03:43:51;0.23;;;0.23;;
2896;SDS011;1458;49.728;9.228;2022-09-24T03:46:21;0.30;;;0.30;;
2896;SDS011;1458;49.728;9.228;2022-09-24T03:48:52;0.30;;;0.30;;
2896;SDS011;1458;49.728;9.228;2022-09-24T03:51:20;0.30;;;0.30;;
2896;SDS011;1458;49.728;9.228;2022-09-24T03:53:47;0.30;;;0.30;;
2896;SDS011;1458;49.728;9.228;2022-09-24T03:56:15;0.30;;;0.30;;
2896;SDS011;1458;49.728;9.228;2022-09-24T03:58:44;0.30;;;0.30;;
2896;SDS011;1458;49.728;9.228;2022-09-24T04:01:12;0.30;;;0.30;;
2896;SDS011;1458;49.728;9.228;2022-09-24T04:03:45;0.30;;;0.30;;
2896;SDS011;1458;49.728;9.228;2022-09-24T04:06:12;0.20;;;0.20;;
2896;SDS011;1458;49.728;9.228;2022-09-24T04:08:40;0.30;;;0.30;;
2896;SDS011;1458;49.728;9.228;2022-09-24T04:11:07;0.20;;;0.20;;
2896;SDS011;1458;49.728;9.228;2022-09-24T04:13:35;0.20;;;0.20;;
2896;SDS011;1458;49.728;9.228;2022-09-24T04:16:04;0.20;;;0.20;;
2896;SDS011;1458;49.728;9.228;2022-09-24T04:18:31;0.30;;;0.30;;
2896;SDS011;1458;49.728;9.228;2022-09-24T04:20:59;0.30;;;0.30;;
2896;SDS011;1458;49.728;9.228;2022-09-24T04:23:26;0.30;;;0.30;;
2896;SDS011;1458;49.728;9.228;2022-09-24T04:25:55;0.30;;;0.30;;
2896;SDS011;1458;49.728;9.228;2022-09-24T04:28:24;0.20;;;0.20;;
2896;SDS011;1458;49.728;9.228;2022-09-24T04:30:52;0.30;;;0.30;;
2896;SDS011;1458;49.728;9.228;2022-09-24T04:33:20;0.30;;;0.30;;
2896;SDS011;1458;49.728;9.228;2022-09-24T04:35:48;0.30;;;0.30;;
2896;SDS011;1458;49.728;9.228;2022-09-24T04:38:15;0.30;;;0.30;;
2896;SDS011;1458;49.728;9.228;2022-09-24T04:40:44;0.30;;;0.30;;
2896;SDS011;1458;49.728;9.228;2022-09-24T04:43:11;0.20;;;0.20;;
2896;SDS011;1458;49.728;9.228;2022-09-24T04:45:39;0.20;;;0.20;;
2896;SDS011;1458;49.728;9.228;2022-09-24T04:48:07;0.20;;;0.20;;
2896;SDS011;1458;49.728;9.228;2022-09-24T04:50:36;0.20;;;0.20;;
2896;SDS011;1458;49.728;9.228;2022-09-24T04:53:04;0.30;;;0.30;;
2896;SDS011;1458;49.728;9.228;2022-09-24T04:55:32;0.20;;;0.20;;
2896;SDS011;1458;49.728;9.228;2022-09-24T04:57:59;0.30;;;0.30;;
2896;SDS011;1458;49.728;9.228;2022-09-24T05:00:27;0.20;;;0.20;;
2896;SDS011;1458;49.728;9.228;2022-09-24T05:02:56;0.30;;;0.30;;
2896;SDS011;1458;49.728;9.228;2022-09-24T05:05:24;0.30;;;0.30;;
2896;SDS011;1458;49.728;9.228;2022-09-24T05:07:54;0.30;;;0.30;;
2896;SDS011;1458;49.728;9.228;2022-09-24T05:10:22;0.30;;;0.30;;
2896;SDS011;1458;49.728;9.228;2022-09-24T05:12:50;0.30;;;0.30;;
2896;SDS011;1458;49.728;9.228;2022-09-24T05:15:18;0.30;;;0.30;;
2896;SDS011;1458;49.728;9.228;2022-09-24T05:17:46;0.30;;;0.30;;
2896;SDS011;1458;49.728;9.228;2022-09-24T05:20:13;0.30;;;0.30;;
2896;SDS011;1458;49.728;9.228;2022-09-24T05:22:42;0.30;;;0.30;;
2896;SDS011;1458;49.728;9.228;2022-09-24T05:25:12;0.30;;;0.30;;
2896;SDS011;1458;49.728;9.228;2022-09-24T05:27:44;0.30;;;0.30;;
2896;SDS011;1458;49.728;9.228;2022-09-24T05:30:11;0.30;;;0.30;;
2896;SDS011;1458;49.728;9.228;2022-09-24T05:32:40;0.20;;;0.20;;
2896;SDS011;1458;49.728;9.228;2022-09-24T05:35:08;0.20;;;0.20;;
2896;SDS011;1458;49.728;9.228;2022-09-24T05:37:36;0.20;;;0.20;;
2896;SDS011;1458;49.728;9.228;2022-09-24T05:40:05;0.20;;;0.20;;
2896;SDS011;1458;49.728;9.228;2022-09-24T05:42:58;0.20;;;0.20;;
2896;SDS011;1458;49.728;9.228;2022-09-24T05:45:27;0.20;;;0.20;;
2896;SDS011;1458;49.728;9.228;2022-09-24T05:47:55;0.20;;;0.20;;
2896;SDS011;1458;49.728;9.228;2022-09-24T05:50:24;0.20;;;0.20;;
2896;SDS011;1458;49.728;9.228;2022-09-24T05:52:51;0.30;;;0.30;;
2896;SDS011;1458;49.728;9.228;2022-09-24T05:55:19;0.20;;;0.20;;
2896;SDS011;1458;49.728;9.228;2022-09-24T05:57:46;0.30;;;0.30;;
2896;SDS011;1458;49.728;9.228;2022-09-24T06:00:15;0.20;;;0.20;;
2896;SDS011;1458;49.728;9.228;2022-09-24T06:02:43;0.23;;;0.23;;
2896;SDS011;1458;49.728;9.228;2022-09-24T06:05:11;0.30;;;0.30;;
2896;SDS011;1458;49.728;9.228;2022-09-24T06:07:39;0.30;;;0.30;;
2896;SDS011;1458;49.728;9.228;2022-09-24T06:10:09;0.20;;;0.20;;
2896;SDS011;1458;49.728;9.228;2022-09-24T06:12:37;0.20;;;0.20;;
2896;SDS011;1458;49.728;9.228;2022-09-24T06:15:04;0.20;;;0.20;;
2896;SDS011;1458;49.728;9.228;2022-09-24T06:17:35;0.20;;;0.20;;
2896;SDS011;1458;49.728;9.228;2022-09-24T06:20:02;0.23;;;0.23;;
2896;SDS011;1458;49.728;9.228;2022-09-24T06:22:30;0.20;;;0.20;;
2896;SDS011;1458;49.728;9.228;2022-09-24T06:24:58;0.30;;;0.30;;
2896;SDS011;1458;49.728;9.228;2022-09-24T06:27:25;0.23;;;0.23;;
2896;SDS011;1458;49.728;9.228;2022-09-24T06:29:52;0.20;;;0.20;;
2896;SDS011;1458;49.728;9.228;2022-09-24T06:32:21;0.20;;;0.20;;
2896;SDS011;1458;49.728;9.228;2022-09-24T06:34:50;0.27;;;0.27;;
2896;SDS011;1458;49.728;9.228;2022-09-24T06:37:18;0.20;;;0.20;;
2896;SDS011;1458;49.728;9.228;2022-09-24T06:39:45;0.23;;;0.23;;
2896;SDS011;1458;49.728;9.228;2022-09-24T06:42:12;0.20;;;0.20;;
2896;SDS011;1458;49.728;9.228;2022-09-24T06:44:40;0.20;;;0.20;;
2896;SDS011;1458;49.728;9.228;2022-09-24T06:47:16;0.23;;;0.23;;
2896;SDS011;1458;49.728;9.228;2022-09-24T06:49:44;0.20;;;0.20;;
2896;SDS011;1458;49.728;9.228;2022-09-24T06:52:21;0.20;;;0.20;;
2896;SDS011;1458;49.728;9.228;2022-09-24T06:54:49;0.20;;;0.20;;
2896;SDS011;1458;49.728;9.228;2022-09-24T06:57:22;0.20;;;0.20;;
2896;SDS011;1458;49.728;9.228;2022-09-24T06:59:50;0.20;;;0.20;;
2896;SDS011;1458;49.728;9.228;2022-09-24T07:02:17;0.23;;;0.23;;
2896;SDS011;1458;49.728;9.228;2022-09-24T07:04:45;0.20;;;0.20;;
2896;SDS011;1458;49.728;9.228;2022-09-24T07:07:12;0.30;;;0.30;;
2896;SDS011;1458;49.728;9.228;2022-09-24T07:09:55;0.20;;;0.20;;
2896;SDS011;1458;49.728;9.228;2022-09-24T07:12:23;0.30;;;0.30;;
2896;SDS011;1458;49.728;9.228;2022-09-24T07:14:50;0.20;;;0.20;;
2896;SDS011;1458;49.728;9.228;2022-09-24T07:17:17;0.40;;;0.40;;
2896;SDS011;1458;49.728;9.228;2022-09-24T07:19:46;0.20;;;0.20;;
2896;SDS011;1458;49.728;9.228;2022-09-24T07:22:13;0.20;;;0.20;;
2896;SDS011;1458;49.728;9.228;2022-09-24T07:24:41;0.20;;;0.20;;
2896;SDS011;1458;49.728;9.228;2022-09-24T07:27:10;0.30;;;0.30;;
2896;SDS011;1458;49.728;9.228;2022-09-24T07:29:38;0.20;;;0.20;;
2896;SDS011;1458;49.728;9.228;2022-09-24T07:32:06;0.30;;;0.30;;
2896;SDS011;1458;49.728;9.228;2022-09-24T07:34:33;0.20;;;0.20;;
2896;SDS011;1458;49.728;9.228;2022-09-24T07:37:01;0.20;;;0.20;;
2896;SDS011;1458;49.728;9.228;2022-09-24T07:39:28;0.23;;;0.23;;
2896;SDS011;1458;49.728;9.228;2022-09-24T07:41:57;0.20;;;0.20;;
2896;SDS011;1458;49.728;9.228;2022-09-24T07:44:28;0.20;;;0.20;;
2896;SDS011;1458;49.728;9.228;2022-09-24T07:46:55;0.30;;;0.30;;
2896;SDS011;1458;49.728;9.228;2022-09-24T07:49:25;0.20;;;0.20;;
2896;SDS011;1458;49.728;9.228;2022-09-24T07:51:56;0.20;;;0.20;;
2896;SDS011;1458;49.728;9.228;2022-09-24T07:54:23;0.23;;;0.23;;
2896;SDS011;1458;49.728;9.228;2022-09-24T07:56:51;0.20;;;0.20;;
2896;SDS011;1458;49.728;9.228;2022-09-24T07:59:20;0.40;;;0.40;;
2896;SDS011;1458;49.728;9.228;2022-09-24T08:01:49;0.30;;;0.30;;
2896;SDS011;1458;49.728;9.228;2022-09-24T08:04:17;0.30;;;0.30;;
2896;SDS011;1458;49.728;9.228;2022-09-24T08:06:44;0.30;;;0.30;;
2896;SDS011;1458;49.728;9.228;2022-09-24T08:09:13;0.30;;;0.30;;
2896;SDS011;1458;49.728;9.228;2022-09-24T08:11:41;0.20;;;0.20;;
2896;SDS011;1458;49.728;9.228;2022-09-24T08:14:10;0.30;;;0.30;;
2896;SDS011;1458;49.728;9.228;2022-09-24T08:16:38;0.30;;;0.30;;
2896;SDS011;1458;49.728;9.228;2022-09-24T08:19:08;0.30;;;0.30;;
2896;SDS011;1458;49.728;9.228;2022-09-24T08:21:38;0.30;;;0.30;;
2896;SDS011;1458;49.728;9.228;2022-09-24T08:24:06;0.27;;;0.27;;
2896;SDS011;1458;49.728;9.228;2022-09-24T08:26:34;0.40;;;0.40;;
2896;SDS011;1458;49.728;9.228;2022-09-24T08:29:01;0.40;;;0.40;;
2896;SDS011;1458;49.728;9.228;2022-09-24T08:31:28;0.40;;;0.40;;
2896;SDS011;1458;49.728;9.228;2022-09-24T08:33:58;0.33;;;0.33;;
2896;SDS011;1458;49.728;9.228;2022-09-24T08:36:27;0.30;;;0.30;;
2896;SDS011;1458;49.728;9.228;2022-09-24T08:38:54;0.40;;;0.40;;
2896;SDS011;1458;49.728;9.228;2022-09-24T08:41:29;0.40;;;0.40;;
2896;SDS011;1458;49.728;9.228;2022-09-24T08:44:22;0.40;;;0.40;;
2896;SDS011;1458;49.728;9.228;2022-09-24T08:47:11;0.40;;;0.40;;
2896;SDS011;1458;49.728;9.228;2022-09-24T08:49:49;0.50;;;0.50;;
2896;SDS011;1458;49.728;9.228;2022-09-24T08:52:28;0.50;;;0.50;;
2896;SDS011;1458;49.728;9.228;2022-09-24T08:55:06;0.60;;;0.60;;
2896;SDS011;1458;49.728;9.228;2022-09-24T08:57:49;0.63;;;0.63;;
2896;SDS011;1458;49.728;9.228;2022-09-24T09:00:25;1.17;;;1.17;;
2896;SDS011;1458;49.728;9.228;2022-09-24T09:02:57;1.00;;;1.00;;
2896;SDS011;1458;49.728;9.228;2022-09-24T09:05:41;1.40;;;1.40;;
2896;SDS011;1458;49.728;9.228;2022-09-24T09:08:22;1.40;;;1.40;;
2896;SDS011;1458;49.728;9.228;2022-09-24T09:11:01;1.60;;;1.60;;
2896;SDS011;1458;49.728;9.228;2022-09-24T09:13:31;2.00;;;2.00;;
2896;SDS011;1458;49.728;9.228;2022-09-24T09:16:04;2.00;;;2.00;;
2896;SDS011;1458;49.728;9.228;2022-09-24T09:18:44;1.90;;;1.90;;
2896;SDS011;1458;49.728;9.228;2022-09-24T09:21:23;1.70;;;1.70;;
2896;SDS011;1458;49.728;9.228;2022-09-24T09:23:58;2.00;;;2.00;;
2896;SDS011;1458;49.728;9.228;2022-09-24T09:26:28;1.80;;;1.80;;
2896;SDS011;1458;49.728;9.228;2022-09-24T09:28:57;2.07;;;2.07;;
2896;SDS011;1458;49.728;9.228;2022-09-24T09:31:28;2.13;;;2.13;;
2896;SDS011;1458;49.728;9.228;2022-09-24T09:34:10;2.77;;;2.77;;
2896;SDS011;1458;49.728;9.228;2022-09-24T09:37:02;3.33;;;3.33;;
2896;SDS011;1458;49.728;9.228;2022-09-24T09:39:44;4.03;;;4.03;;
2896;SDS011;1458;49.728;9.228;2022-09-24T09:42:25;4.20;;;4.20;;
2896;SDS011;1458;49.728;9.228;2022-09-24T09:44:58;4.90;;;4.90;;
2896;SDS011;1458;49.728;9.228;2022-09-24T09:47:30;4.70;;;4.70;;
2896;SDS011;1458;49.728;9.228;2022-09-24T09:50:09;5.03;;;5.03;;
2896;SDS011;1458;49.728;9.228;2022-09-24T09:52:44;5.40;;;5.40;;
2896;SDS011;1458;49.728;9.228;2022-09-24T09:55:20;5.07;;;5.07;;
2896;SDS011;1458;49.728;9.228;2022-09-24T09:57:51;5.30;;;5.30;;
2896;SDS011;1458;49.728;9.228;2022-09-24T10:00:23;4.97;;;4.97;;
2896;SDS011;1458;49.728;9.228;2022-09-24T10:02:53;5.40;;;5.40;;
2896;SDS011;1458;49.728;9.228;2022-09-24T10:05:23;5.70;;;5.70;;
2896;SDS011;1458;49.728;9.228;2022-09-24T10:07:53;6.33;;;6.33;;
2896;SDS011;1458;49.728;9.228;2022-09-24T10:10:23;6.23;;;6.23;;
2896;SDS011;1458;49.728;9.228;2022-09-24T10:12:52;6.53;;;6.43;;
2896;SDS011;1458;49.728;9.228;2022-09-24T10:15:31;7.10;;;7.00;;
2896;SDS011;1458;49.728;9.228;2022-09-24T10:17:58;7.27;;;7.17;;
2896;SDS011;1458;49.728;9.228;2022-09-24T10:20:27;7.87;;;7.77;;
2896;SDS011;1458;49.728;9.228;2022-09-24T10:22:58;8.43;;;8.33;;
2896;SDS011;1458;49.728;9.228;2022-09-24T10:25:30;9.00;;;8.80;;
2896;SDS011;1458;49.728;9.228;2022-09-24T10:28:00;8.30;;;8.20;;
2896;SDS011;1458;49.728;9.228;2022-09-24T10:30:52;8.03;;;7.93;;
2896;SDS011;1458;49.728;9.228;2022-09-24T10:33:23;8.97;;;8.77;;
2896;SDS011;1458;49.728;9.228;2022-09-24T10:36:02;9.00;;;8.80;;
2896;SDS011;1458;49.728;9.228;2022-09-24T10:38:32;8.90;;;8.70;;
2896;SDS011;1458;49.728;9.228;2022-09-24T10:41:01;9.13;;;8.93;;
2896;SDS011;1458;49.728;9.228;2022-09-24T10:43:48;9.60;;;9.40;;
2896;SDS011;1458;49.728;9.228;2022-09-24T10:46:19;9.60;;;9.40;;
2896;SDS011;1458;49.728;9.228;2022-09-24T10:49:24;10.10;;;9.90;;
2896;SDS011;1458;49.728;9.228;2022-09-24T10:52:11;9.73;;;9.53;;
2896;SDS011;1458;49.728;9.228;2022-09-24T10:54:57;10.00;;;9.80;;
2896;SDS011;1458;49.728;9.228;2022-09-24T10:57:40;10.53;;;10.30;;
2896;SDS011;1458;49.728;9.228;2022-09-24T11:00:18;10.70;;;10.40;;
2896;SDS011;1458;49.728;9.228;2022-09-24T11:05:55;10.70;;;10.40;;
2896;SDS011;1458;49.728;9.228;2022-09-24T11:08:38;11.10;;;10.80;;
2896;SDS011;1458;49.728;9.228;2022-09-24T11:11:23;10.90;;;10.60;;
2896;SDS011;1458;49.728;9.228;2022-09-24T11:14:10;10.80;;;10.50;;
2896;SDS011;1458;49.728;9.228;2022-09-24T11:16:59;11.10;;;10.80;;
2896;SDS011;1458;49.728;9.228;2022-09-24T11:20:03;11.20;;;10.90;;
2896;SDS011;1458;49.728;9.228;2022-09-24T11:22:48;11.40;;;11.10;;
2896;SDS011;1458;49.728;9.228;2022-09-24T11:25:39;11.77;;;11.47;;
2896;SDS011;1458;49.728;9.228;2022-09-24T11:28:28;12.30;;;11.90;;
2896;SDS011;1458;49.728;9.228;2022-09-24T11:31:27;12.20;;;11.80;;
2896;SDS011;1458;49.728;9.228;2022-09-24T11:34:08;12.83;;;12.43;;
2896;SDS011;1458;49.728;9.228;2022-09-24T11:37:06;12.70;;;12.30;;
2896;SDS011;1458;49.728;9.228;2022-09-24T11:39:50;12.87;;;12.47;;
2896;SDS011;1458;49.728;9.228;2022-09-24T11:42:31;13.03;;;12.63;;
2896;SDS011;1458;49.728;9.228;2022-09-24T11:45:21;13.03;;;12.63;;
2896;SDS011;1458;49.728;9.228;2022-09-24T11:48:09;12.80;;;12.40;;
2896;SDS011;1458;49.728;9.228;2022-09-24T11:50:57;13.47;;;13.07;;
2896;SDS011;1458;49.728;9.228;2022-09-24T11:53:35;12.70;;;12.30;;
2896;SDS011;1458;49.728;9.228;2022-09-24T11:56:08;12.57;;;12.17;;
2896;SDS011;1458;49.728;9.228;2022-09-24T11:58:43;13.40;;;13.00;;
2896;SDS011;1458;49.728;9.228;2022-09-24T12:01:18;13.30;;;12.90;;
2896;SDS011;1458;49.728;9.228;2022-09-24T12:03:54;12.60;;;12.20;;
2896;SDS011;1458;49.728;9.228;2022-09-24T12:06:29;12.60;;;12.20;;
2896;SDS011;1458;49.728;9.228;2022-09-24T12:09:02;12.70;;;12.30;;
2896;SDS011;1458;49.728;9.228;2022-09-24T12:11:41;13.10;;;12.70;;
2896;SDS011;1458;49.728;9.228;2022-09-24T12:14:15;13.50;;;13.00;;
2896;SDS011;1458;49.728;9.228;2022-09-24T12:16:51;12.93;;;12.53;;
2896;SDS011;1458;49.728;9.228;2022-09-24T12:19:27;13.57;;;13.13;;
2896;SDS011;1458;49.728;9.228;2022-09-24T12:22:02;13.53;;;13.10;;
2896;SDS011;1458;49.728;9.228;2022-09-24T12:24:33;14.00;;;13.50;;
2896;SDS011;1458;49.728;9.228;2022-09-24T12:27:03;13.47;;;12.97;;
2896;SDS011;1458;49.728;9.228;2022-09-24T12:29:55;13.03;;;12.63;;
2896;SDS011;1458;49.728;9.228;2022-09-24T12:32:46;13.33;;;12.93;;
2896;SDS011;1458;49.728;9.228;2022-09-24T12:35:28;12.93;;;12.53;;
2896;SDS011;1458;49.728;9.228;2022-09-24T12:38:08;12.30;;;11.90;;
2896;SDS011;1458;49.728;9.228;2022-09-24T12:40:49;12.50;;;12.10;;
2896;SDS011;1458;49.728;9.228;2022-09-24T12:43:48;13.20;;;12.80;;
2896;SDS011;1458;49.728;9.228;2022-09-24T12:46:24;13.00;;;12.60;;
2896;SDS011;1458;49.728;9.228;2022-09-24T12:48:55;13.37;;;12.97;;
2896;SDS011;1458;49.728;9.228;2022-09-24T12:51:31;12.47;;;12.07;;
2896;SDS011;1458;49.728;9.228;2022-09-24T12:54:04;12.37;;;11.97;;
2896;SDS011;1458;49.728;9.228;2022-09-24T12:56:34;12.40;;;12.00;;
2896;SDS011;1458;49.728;9.228;2022-09-24T12:59:01;13.13;;;12.73;;
2896;SDS011;1458;49.728;9.228;2022-09-24T13:01:30;12.30;;;11.90;;
2896;SDS011;1458;49.728;9.228;2022-09-24T13:06:53;13.00;;;12.60;;
2896;SDS011;1458;49.728;9.228;2022-09-24T13:09:32;13.03;;;12.63;;
2896;SDS011;1458;49.728;9.228;2022-09-24T13:12:03;12.70;;;12.30;;
2896;SDS011;1458;49.728;9.228;2022-09-24T13:14:47;13.03;;;12.63;;
2896;SDS011;1458;49.728;9.228;2022-09-24T13:17:21;13.00;;;12.60;;
2896;SDS011;1458;49.728;9.228;2022-09-24T13:19:55;12.90;;;12.50;;
2896;SDS011;1458;49.728;9.228;2022-09-24T13:22:27;12.50;;;12.10;;
2896;SDS011;1458;49.728;9.228;2022-09-24T13:25:16;11.90;;;11.60;;
2896;SDS011;1458;49.728;9.228;2022-09-24T13:27:56;12.23;;;11.83;;
2896;SDS011;1458;49.728;9.228;2022-09-24T13:30:35;12.63;;;12.23;;
2896;SDS011;1458;49.728;9.228;2022-09-24T13:33:14;13.30;;;12.90;;
2896;SDS011;1458;49.728;9.228;2022-09-24T13:35:51;12.73;;;12.33;;
2896;SDS011;1458;49.728;9.228;2022-09-24T13:38:32;13.00;;;12.60;;
2896;SDS011;1458;49.728;9.228;2022-09-24T13:41:03;12.77;;;12.37;;
2896;SDS011;1458;49.728;9.228;2022-09-24T13:43:52;13.10;;;12.70;;
2896;SDS011;1458;49.728;9.228;2022-09-24T13:46:25;12.60;;;12.20;;
2896;SDS011;1458;49.728;9.228;2022-09-24T13:48:55;12.00;;;11.70;;
2896;SDS011;1458;49.728;9.228;2022-09-24T13:51:32;12.93;;;12.53;;
2896;SDS011;1458;49.728;9.228;2022-09-24T13:54:06;12.37;;;11.97;;
2896;SDS011;1458;49.728;9.228;2022-09-24T13:56:42;12.90;;;12.50;;
2896;SDS011;1458;49.728;9.228;2022-09-24T13:59:22;13.27;;;12.87;;
2896;SDS011;1458;49.728;9.228;2022-09-24T14:01:50;13.17;;;12.77;;
2896;SDS011;1458;49.728;9.228;2022-09-24T14:04:18;13.27;;;12.87;;
2896;SDS011;1458;49.728;9.228;2022-09-24T14:06:48;12.80;;;12.40;;
2896;SDS011;1458;49.728;9.228;2022-09-24T14:09:27;12.67;;;12.27;;
2896;SDS011;1458;49.728;9.228;2022-09-24T14:11:56;12.33;;;11.93;;
2896;SDS011;1458;49.728;9.228;2022-09-24T14:14:26;12.80;;;12.40;;
2896;SDS011;1458;49.728;9.228;2022-09-24T14:17:06;13.27;;;12.87;;
2896;SDS011;1458;49.728;9.228;2022-09-24T14:19:37;12.50;;;12.10;;
2896;SDS011;1458;49.728;9.228;2022-09-24T14:22:05;13.10;;;12.70;;
2896;SDS011;1458;49.728;9.228;2022-09-24T14:24:43;13.40;;;13.00;;
2896;SDS011;1458;49.728;9.228;2022-09-24T14:27:20;12.80;;;12.40;;
2896;SDS011;1458;49.728;9.228;2022-09-24T14:29:49;12.30;;;11.90;;
2896;SDS011;1458;49.728;9.228;2022-09-24T14:32:23;12.30;;;11.90;;
2896;SDS011;1458;49.728;9.228;2022-09-24T14:34:56;11.70;;;11.40;;
2896;SDS011;1458;49.728;9.228;2022-09-24T14:37:26;11.70;;;11.40;;
2896;SDS011;1458;49.728;9.228;2022-09-24T14:39:59;12.00;;;11.70;;
2896;SDS011;1458;49.728;9.228;2022-09-24T14:42:31;11.30;;;11.00;;
2896;SDS011;1458;49.728;9.228;2022-09-24T14:45:03;12.07;;;11.77;;
2896;SDS011;1458;49.728;9.228;2022-09-24T14:47:36;12.03;;;11.73;;
2896;SDS011;1458;49.728;9.228;2022-09-24T14:52:59;11.67;;;11.37;;
2896;SDS011;1458;49.728;9.228;2022-09-24T14:55:36;11.93;;;11.63;;
2896;SDS011;1458;49.728;9.228;2022-09-24T14:58:20;12.03;;;11.73;;
2896;SDS011;1458;49.728;9.228;2022-09-24T15:00:50;11.77;;;11.47;;
2896;SDS011;1458;49.728;9.228;2022-09-24T15:03:22;11.70;;;11.40;;
2896;SDS011;1458;49.728;9.228;2022-09-24T15:06:02;11.73;;;11.43;;
2896;SDS011;1458;49.728;9.228;2022-09-24T15:08:41;11.77;;;11.47;;
2896;SDS011;1458;49.728;9.228;2022-09-24T15:11:15;11.40;;;11.10;;
2896;SDS011;1458;49.728;9.228;2022-09-24T15:13:43;11.30;;;11.00;;
2896;SDS011;1458;49.728;9.228;2022-09-24T15:16:16;10.60;;;10.30;;
2896;SDS011;1458;49.728;9.228;2022-09-24T15:18:49;11.27;;;10.97;;
2896;SDS011;1458;49.728;9.228;2022-09-24T15:21:24;10.80;;;10.50;;
2896;SDS011;1458;49.728;9.228;2022-09-24T15:23:52;10.57;;;10.27;;
2896;SDS011;1458;49.728;9.228;2022-09-24T15:26:24;10.10;;;9.90;;
2896;SDS011;1458;49.728;9.228;2022-09-24T15:28:56;10.40;;;10.20;;
2896;SDS011;1458;49.728;9.228;2022-09-24T15:31:24;9.50;;;9.30;;
2896;SDS011;1458;49.728;9.228;2022-09-24T15:33:51;9.40;;;9.20;;
2896;SDS011;1458;49.728;9.228;2022-09-24T15:36:20;9.10;;;8.90;;
2896;SDS011;1458;49.728;9.228;2022-09-24T15:38:48;8.43;;;8.33;;
2896;SDS011;1458;49.728;9.228;2022-09-24T15:41:17;7.60;;;7.50;;
2896;SDS011;1458;49.728;9.228;2022-09-24T15:43:46;7.20;;;7.10;;
2896;SDS011;1458;49.728;9.228;2022-09-24T15:46:13;6.53;;;6.47;;
2896;SDS011;1458;49.728;9.228;2022-09-24T15:48:41;6.40;;;6.40;;
2896;SDS011;1458;49.728;9.228;2022-09-24T15:51:10;5.80;;;5.80;;
2896;SDS011;1458;49.728;9.228;2022-09-24T15:53:41;5.30;;;5.30;;